Pagina principală
METAR-TAF:

METAR-TAF

Aeroporturi :

Maracaibo, Venezuela

Latitudine: 10-34N, longitudine: 071-44W, elevație: 66 m

Observații meteo curente

Raportul a fost făcut în urmă cu 59 de minute, la 16:03 UTC
Vânt 3 kt de la Sud-vest
Temperatură 33°C
Umiditate 59%
Presiune 1011 hPa

METAR: SVMC 171603Z AUTO 23003KT NCD 33/24 Q1011

Ora: 13:02 (17:02 UTC)

Prognoză

Raportul a fost făcut în urmă cu 7 ore și 2 de minute, la 10:00 UTC
Prognoză valabilă de la 17 ora 12 UTC la 18 ora 12 UTC
Vânt 4 kt de la Vest/Sud-vest
Vizibilitate de 10 km sau mai mult
Nori fragmentați la o înălțime de 1300 picior
Nori împrăștiați la o înălțime de 8000 picior
Temporar
de la 17 ora 13 UTC la 17 ora 15 UTC
Vânt 6 kt de la Sud
Vizibilitate: 9000 m
Nori împrăștiați la o înălțime de 1600 picior
Nori împrăștiați la o înălțime de 7000 picior
burniță slabă,

TAF: SVMC 171000Z 1712/1812 24004KT 9999 BKN013 SCT080 TX29/1719Z TN28/1708Z TEMPO 1713/1715 17006KT 9000 -DZ SCT016 SCT070

Observații și prognoze meteo pentru peste 4.000 de aeroporturi (rapoarte METAR și TAF).

Stațiile disponibile sunt reprezentate pe hartă prin puncte galbene și roșii.

Țineți indicatorul mouse-ului pe punctul dorit pentru a vedea denumirea stației.

Apoi, faceți clic pentru a vedea observațiile și prognozele meteorologice.

Pentru a schimba harta: Pentru mărire, faceți clic pe butoanele verzi cu cruce neagră; pentru micșorare, pe butonul verde cu o liniuță; pentru hărți învecinate, pe săgețile verzi.


METAR-TAF: